Time;durP1;ratioP1;P1;durP2;ratioP2;P2;SDS_P1;SDS_P2;PMS_P1;PMS_P2;Temp;Humidity;BMP_temperature;BMP_pressure;BME280_temperature;BME280_humidity;BME280_pressure;Samples;Min_cycle;Max_cycle;Signal;HPM_P1;HPM_P2
2021/03/14 00:02:16;;;;;;;1.42;0.80;;;;;;;8.51;68.86;97700.08;4451789;77;21216;-89
2021/03/14 00:08:20;;;;;;;0.62;0.45;;;;;;;7.79;67.82;97695.58;4506090;77;21188;-88
2021/03/14 00:14:22;;;;;;;0.95;0.60;;;;;;;7.45;66.73;97695.70;4464132;77;21832;-89
2021/03/14 00:20:24;;;;;;;8.25;1.35;;;;;;;7.40;66.80;97694.72;4498494;77;21185;-89
2021/03/14 00:26:25;;;;;;;5.45;1.25;;;;;;;7.37;71.90;97670.98;4486815;77;21209;-90
2021/03/14 00:32:27;;;;;;;7.25;2.95;;;;;;;7.28;73.25;97643.36;4497400;77;21205;-89
2021/03/14 00:38:29;;;;;;;8.08;2.22;;;;;;;7.20;71.76;97639.84;4499588;77;21168;-88
2021/03/14 00:44:30;;;;;;;2.95;1.32;;;;;;;7.21;68.96;97648.77;4481403;77;21205;-88
2021/03/14 00:57:05;;;;;;;4.08;1.80;;;;;;;7.17;69.96;97661.60;4485314;77;21635;-89
2021/03/14 01:03:07;;;;;;;13.10;3.10;;;;;;;7.22;71.07;97648.38;4479017;77;21222;-88
2021/03/14 01:22:49;;;;;;;9.25;3.55;;;;;;;7.16;69.47;97683.95;4498397;76;21149;-88
2021/03/14 01:28:50;;;;;;;3.95;1.95;;;;;;;7.13;69.54;97688.01;4460869;77;21368;-88
2021/03/14 01:34:52;;;;;;;5.62;2.17;;;;;;;7.11;69.54;97694.44;4475720;78;21190;-88
2021/03/14 01:40:54;;;;;;;2.77;1.42;;;;;;;7.08;69.64;97681.59;4493576;77;21228;-88
2021/03/14 01:46:56;;;;;;;5.53;2.33;;;;;;;7.07;69.84;97667.20;4479178;78;21215;-88
2021/03/14 01:52:57;;;;;;;6.55;2.30;;;;;;;7.02;70.69;97657.25;4501276;77;21197;-87
2021/03/14 01:59:00;;;;;;;7.58;2.20;;;;;;;6.94;72.10;97631.97;4493989;77;21173;-87
2021/03/14 02:05:04;;;;;;;2.62;1.35;;;;;;;6.82;70.91;97667.69;4491928;77;21206;-88
2021/03/14 02:11:06;;;;;;;4.65;2.02;;;;;;;6.75;70.62;97675.80;4493320;77;21629;-88
2021/03/14 02:17:19;;;;;;;7.80;2.98;;;;;;;6.62;71.33;97673.79;4495778;77;21220;-89
2021/03/14 02:23:48;;;;;;;4.97;1.40;;;;;;;6.56;71.85;97675.31;4495466;77;21171;-89
2021/03/14 02:29:51;;;;;;;3.00;1.33;;;;;;;6.58;71.68;97662.89;4488166;77;21206;-90
2021/03/14 02:35:55;;;;;;;1.60;1.10;;;;;;;6.59;71.15;97656.88;4481984;77;21733;-89
2021/03/14 02:41:59;;;;;;;5.15;1.80;;;;;;;6.59;71.56;97646.80;4494780;77;21172;-89
2021/03/14 02:48:04;;;;;;;3.92;1.80;;;;;;;6.57;71.23;97642.88;4485473;77;21232;-88
2021/03/14 03:01:01;;;;;;;1.80;0.80;;;;;;;6.48;70.34;97634.29;4497081;77;22231;-90
2021/03/14 03:07:04;;;;;;;6.12;1.70;;;;;;;6.44;70.27;97642.42;4491589;77;21210;-89
2021/03/14 03:13:06;;;;;;;2.45;0.82;;;;;;;6.45;70.00;97656.80;4491487;77;22150;-89
2021/03/14 03:19:12;;;;;;;3.47;1.10;;;;;;;6.35;70.01;97650.93;4494226;77;21766;-89
2021/03/14 03:25:25;;;;;;;5.50;1.92;;;;;;;6.29;70.05;97655.73;4502112;77;21806;-88
2021/03/14 03:31:26;;;;;;;6.62;2.30;;;;;;;6.29;70.02;97654.37;4497048;77;21991;-89
2021/03/14 03:37:28;;;;;;;4.25;1.70;;;;;;;6.23;70.17;97647.14;4498347;77;21153;-89
2021/03/14 03:43:52;;;;;;;2.17;0.80;;;;;;;6.20;69.82;97664.20;4494398;77;21683;-88
2021/03/14 03:49:57;;;;;;;1.62;0.60;;;;;;;6.20;69.63;97671.59;4506195;77;21197;-87
2021/03/14 03:55:59;;;;;;;2.22;1.00;;;;;;;6.20;70.11;97664.20;4496341;77;21176;-89
2021/03/14 04:02:02;;;;;;;5.12;1.67;;;;;;;6.17;69.60;97666.32;4504758;78;21158;-89
2021/03/14 04:08:05;;;;;;;3.40;0.98;;;;;;;6.13;69.72;97649.80;4494454;77;21183;-89
2021/03/14 04:20:56;;;;;;;3.92;0.57;;;;;;;6.07;69.49;97669.76;4372065;78;21161;-90
2021/03/14 04:27:02;;;;;;;3.72;1.20;;;;;;;6.08;69.51;97653.65;4413561;79;21197;-89
2021/03/14 04:33:06;;;;;;;3.02;1.55;;;;;;;6.03;69.61;97662.71;4381108;79;21168;-89
2021/03/14 04:39:08;;;;;;;3.25;1.32;;;;;;;6.03;69.51;97661.36;4412076;79;21240;-89
2021/03/14 04:45:11;;;;;;;3.72;1.30;;;;;;;6.07;69.18;97667.05;4475276;77;22521;-89
2021/03/14 04:51:15;;;;;;;5.17;1.50;;;;;;;6.02;69.29;97660.59;4498306;77;22238;-88
2021/03/14 04:57:20;;;;;;;2.27;1.00;;;;;;;5.98;69.17;97665.20;4475904;77;21190;-88
2021/03/14 05:03:23;;;;;;;3.47;1.20;;;;;;;5.92;69.55;97659.16;4494360;77;21339;-89
2021/03/14 05:09:26;;;;;;;2.95;1.20;;;;;;;5.85;69.45;97655.80;4490586;77;21189;-89
2021/03/14 05:15:28;;;;;;;2.25;1.17;;;;;;;5.85;69.64;97654.45;4487524;77;21220;-89
2021/03/14 05:21:31;;;;;;;4.08;1.30;;;;;;;5.83;69.57;97640.45;4507299;77;21175;-88
2021/03/14 05:27:57;;;;;;;1.65;0.70;;;;;;;5.79;69.77;97635.55;4495779;77;21165;-88
2021/03/14 05:34:03;;;;;;;1.67;0.90;;;;;;;5.86;69.68;97641.62;4488498;77;21188;-89
2021/03/14 05:40:06;;;;;;;4.78;1.10;;;;;;;5.89;69.64;97636.23;4483995;77;21210;-88
2021/03/14 05:53:08;;;;;;;2.10;0.93;;;;;;;5.91;69.40;97627.14;4489246;77;21216;-88
2021/03/14 05:59:13;;;;;;;3.00;1.20;;;;;;;5.90;69.26;97630.99;4454329;77;21169;-89
2021/03/14 06:05:15;;;;;;;1.27;0.90;;;;;;;5.90;69.53;97630.99;4472794;77;21192;-90
2021/03/14 06:11:30;;;;;;;3.72;1.70;;;;;;;6.06;69.66;97651.88;4382887;79;21633;-89
2021/03/14 06:17:35;;;;;;;2.80;1.50;;;;;;;6.32;69.71;97654.41;4358561;79;21157;-89
2021/03/14 06:23:36;;;;;;;2.95;1.25;;;;;;;6.59;68.61;97667.19;4374385;79;21226;-88
2021/03/14 06:29:40;;;;;;;4.92;1.20;;;;;;;6.74;68.82;97668.02;4494339;77;21415;-88
2021/03/14 06:35:51;;;;;;;3.33;1.00;;;;;;;6.91;68.14;97671.40;4493945;77;21189;-88
2021/03/14 06:41:59;;;;;;;5.35;1.85;;;;;;;7.10;68.44;97681.97;4478726;77;21236;-89
2021/03/14 06:48:16;;;;;;;3.87;1.22;;;;;;;7.10;67.79;97671.88;4474934;77;21161;-89
2021/03/14 06:54:39;;;;;;;2.90;1.30;;;;;;;7.05;67.18;97684.48;4488152;78;21205;-90
2021/03/14 07:00:41;;;;;;;2.95;1.42;;;;;;;7.04;67.34;97701.20;4490347;77;21220;-90
2021/03/14 07:06:43;;;;;;;4.78;1.80;;;;;;;7.09;67.18;97705.70;4488314;77;21107;-88
2021/03/14 07:19:58;;;;;;;5.25;2.00;;;;;;;7.52;65.67;97716.92;4421250;79;21203;-88
2021/03/14 07:26:02;;;;;;;5.22;2.08;;;;;;;7.70;65.86;97716.40;4429342;78;21230;-89
2021/03/14 07:32:06;;;;;;;3.75;1.60;;;;;;;7.82;65.32;97722.83;4421799;78;21170;-90
2021/03/14 07:38:13;;;;;;;6.08;1.98;;;;;;;7.95;65.45;97709.01;4423278;78;21246;-89
2021/03/14 07:44:36;;;;;;;5.80;2.20;;;;;;;8.07;65.51;97716.61;4483115;77;21173;-89
2021/03/14 07:50:44;;;;;;;4.62;1.77;;;;;;;8.26;65.21;97708.87;4508433;77;21169;-89
2021/03/14 08:03:37;;;;;;;5.85;2.08;;;;;;;8.65;63.51;97725.19;4480293;77;21364;-89
2021/03/14 08:09:46;;;;;;;4.37;1.90;;;;;;;8.76;62.82;97722.64;4498525;77;21671;-89
2021/03/14 08:16:02;;;;;;;3.87;1.60;;;;;;;8.95;62.15;97730.39;4473991;77;21132;-89
2021/03/14 08:22:04;;;;;;;4.53;1.90;;;;;;;9.01;61.88;97735.64;4512859;77;21154;-88
2021/03/14 08:28:29;;;;;;;2.60;1.10;;;;;;;9.13;61.40;97761.14;4502959;77;21742;-91
2021/03/14 08:41:27;;;;;;;3.22;1.20;;;;;;;9.62;59.60;97779.88;4505611;77;21180;-90
2021/03/14 08:47:37;;;;;;;;;;;;;;;9.83;59.29;97778.42;4492444;77;21597;-88
2021/03/14 08:53:46;;;;;;;2.87;1.40;;;;;;;10.06;58.76;97802.70;4312895;80;20221;-89
2021/03/14 09:00:12;;;;;;;4.85;1.20;;;;;;;9.98;54.39;97788.09;4322478;80;21193;-89
2021/03/14 09:06:29;;;;;;;4.60;1.50;;;;;;;9.94;57.46;97786.76;4293326;80;21226;-89
2021/03/14 09:12:40;;;;;;;4.20;1.60;;;;;;;10.16;58.03;97795.05;4336298;80;21228;-89
2021/03/14 09:18:54;;;;;;;2.55;1.20;;;;;;;10.35;57.18;97796.48;4584052;76;22426;-87
2021/03/14 09:25:01;;;;;;;4.22;1.70;;;;;;;10.34;57.27;97797.07;4487744;78;21183;-87
2021/03/14 09:31:03;;;;;;;7.05;1.82;;;;;;;10.28;57.11;97791.05;4485370;78;21184;-88
2021/03/14 09:37:07;;;;;;;3.62;1.37;;;;;;;10.29;56.54;97788.53;4488020;78;21649;-87
2021/03/14 09:43:28;;;;;;;4.50;1.45;;;;;;;10.33;56.41;97811.15;4485854;78;21644;-88
2021/03/14 09:50:06;;;;;;;4.50;1.50;;;;;;;10.32;55.26;97819.17;4582508;76;23520;-88
2021/03/14 09:56:12;;;;;;;3.65;1.80;;;;;;;10.10;56.05;97813.04;4483635;78;21141;-88
2021/03/14 10:02:29;;;;;;;4.10;1.98;;;;;;;10.20;55.54;97823.15;4585519;75;22830;-86
2021/03/14 10:08:41;;;;;;;6.08;2.20;;;;;;;10.20;56.07;97824.52;4484924;78;21170;-88
2021/03/14 10:14:46;;;;;;;9.20;2.30;;;;;;;10.22;55.92;97838.58;4486660;78;21664;-86
2021/03/14 10:20:51;;;;;;;5.40;2.40;;;;;;;10.20;55.69;97845.61;4492649;78;21229;-88
2021/03/14 10:27:03;;;;;;;7.22;2.90;;;;;;;10.04;55.71;97855.62;4487512;78;21108;-87
2021/03/14 10:33:17;;;;;;;6.90;2.40;;;;;;;10.03;55.81;97849.19;4490756;78;21608;-88
2021/03/14 10:39:29;;;;;;;6.40;2.73;;;;;;;9.84;55.89;97848.30;4483710;78;21148;-90
2021/03/14 10:45:44;;;;;;;7.47;2.22;;;;;;;9.67;55.35;97856.77;4436793;78;21196;-91
2021/03/14 10:51:54;;;;;;;5.78;2.62;;;;;;;9.69;55.53;97863.20;4483948;77;21192;-91
2021/03/14 10:58:15;;;;;;;4.28;2.10;;;;;;;9.76;56.00;97869.99;4489953;78;21604;-91
2021/03/14 11:04:30;;;;;;;4.42;2.20;;;;;;;9.83;55.08;97875.45;4491372;78;21310;-91
2021/03/14 11:10:34;;;;;;;5.22;2.00;;;;;;;9.85;54.82;97897.70;4488029;78;21723;-87
2021/03/14 11:17:16;;;;;;;5.40;2.53;;;;;;;9.85;55.07;97887.53;4487344;77;28081;-88
2021/03/14 11:23:23;;;;;;;3.60;2.02;;;;;;;10.18;55.22;97892.50;4454767;78;22325;-87
2021/03/14 11:29:25;;;;;;;3.58;1.82;;;;;;;10.16;54.51;97884.52;4487272;78;21193;-88
2021/03/14 11:35:31;;;;;;;4.22;2.15;;;;;;;10.28;54.55;97876.63;4476336;78;21149;-87
2021/03/14 11:42:01;;;;;;;5.65;2.20;;;;;;;10.57;53.29;97867.05;4437903;79;23001;-88
2021/03/14 11:48:19;;;;;;;5.53;2.25;;;;;;;10.61;53.04;97875.25;4387455;79;21202;-88
2021/03/14 11:54:26;;;;;;;4.70;2.20;;;;;;;10.80;52.68;97869.25;4387169;80;22738;-87
2021/03/14 12:00:35;;;;;;;5.33;2.27;;;;;;;10.85;52.73;97882.52;4376345;80;21582;-88
2021/03/14 12:06:37;;;;;;;4.65;2.05;;;;;;;11.00;52.35;97868.30;4385863;79;21195;-88
2021/03/14 12:12:40;;;;;;;7.85;2.70;;;;;;;11.42;50.75;97856.16;4381292;80;21237;-88
2021/03/14 12:18:44;;;;;;;4.53;2.92;;;;;;;11.35;51.34;97859.56;4379970;80;21154;-88
2021/03/14 12:24:46;;;;;;;5.60;2.35;;;;;;;11.06;51.60;97854.94;4382791;80;21206;-89
2021/03/14 12:30:49;;;;;;;5.97;2.90;;;;;;;10.97;51.50;97851.31;4395968;80;21149;-90
2021/03/14 12:36:50;;;;;;;5.00;2.37;;;;;;;11.07;51.89;97851.80;4372529;80;21259;-89
2021/03/14 12:42:54;;;;;;;6.05;2.67;;;;;;;11.12;51.24;97857.42;4316605;81;21183;-88
2021/03/14 12:49:00;;;;;;;5.80;2.77;;;;;;;11.16;51.17;97856.03;4317386;81;21711;-88
2021/03/14 12:55:04;;;;;;;5.65;2.80;;;;;;;11.13;50.66;97869.34;4195896;81;9999616;-88
2021/03/14 13:01:06;;;;;;;5.80;2.62;;;;;;;11.18;50.84;97872.84;4275927;81;21216;-88
2021/03/14 13:07:08;;;;;;;4.45;2.50;;;;;;;11.08;50.00;97875.86;4311794;80;21153;-89
2021/03/14 13:13:09;;;;;;;6.42;2.70;;;;;;;11.13;50.27;97888.34;4319480;81;21181;-88
2021/03/14 13:19:11;;;;;;;4.45;2.30;;;;;;;11.03;49.39;97906.41;4323340;81;21790;-88
2021/03/14 13:25:14;;;;;;;5.10;2.35;;;;;;;10.78;48.98;97915.41;4317747;81;21693;-89
2021/03/14 13:31:18;;;;;;;7.12;3.00;;;;;;;10.72;49.24;97929.33;4318845;81;21200;-87
2021/03/14 13:37:20;;;;;;;8.70;3.17;;;;;;;10.77;48.84;97930.28;4325451;80;21181;-88
2021/03/14 13:43:23;;;;;;;6.17;2.80;;;;;;;10.67;49.11;97931.11;4376558;80;21240;-88
2021/03/14 13:49:24;;;;;;;7.80;3.27;;;;;;;10.60;48.46;97939.38;4372263;80;21165;-89
2021/03/14 13:55:26;;;;;;;7.12;3.30;;;;;;;10.53;49.48;97947.62;4380240;80;21188;-88
2021/03/14 14:01:27;;;;;;;6.30;2.80;;;;;;;10.48;49.21;97948.03;4381066;79;21170;-90
2021/03/14 14:07:29;;;;;;;4.58;2.95;;;;;;;10.40;49.35;97943.19;4364842;80;21932;-89
2021/03/14 14:13:31;;;;;;;7.75;3.27;;;;;;;10.43;49.20;97932.81;4384328;80;21245;-89
2021/03/14 14:19:33;;;;;;;6.60;3.30;;;;;;;10.42;49.26;97943.58;4380443;80;21390;-89
2021/03/14 14:25:35;;;;;;;7.28;3.35;;;;;;;10.27;48.70;97941.31;4385742;80;21153;-88
2021/03/14 14:31:37;;;;;;;7.83;4.35;;;;;;;9.99;49.25;97979.06;4388488;80;21210;-90
2021/03/14 14:37:39;;;;;;;5.33;3.25;;;;;;;9.08;52.66;97987.36;4380557;80;21173;-87
2021/03/14 14:43:41;;;;;;;13.08;5.03;;;;;;;7.91;57.21;98009.91;4362638;80;21614;-89
2021/03/14 14:49:43;;;;;;;13.72;6.05;;;;;;;7.08;57.96;98018.43;4358468;80;21171;-87
2021/03/14 14:55:45;;;;;;;7.70;4.50;;;;;;;6.84;59.36;97997.23;4362302;80;21193;-87
2021/03/14 15:01:47;;;;;;;7.20;4.20;;;;;;;6.91;59.64;97989.13;4356606;80;21229;-87
2021/03/14 15:07:49;;;;;;;8.70;4.33;;;;;;;7.22;59.82;97986.49;4363676;80;21163;-88
2021/03/14 15:13:51;;;;;;;7.47;4.50;;;;;;;7.59;60.28;97979.77;4362772;80;22566;-88
2021/03/14 15:19:53;;;;;;;8.68;4.20;;;;;;;7.79;60.83;97982.42;4361885;80;21165;-88
2021/03/14 15:25:54;;;;;;;8.75;3.70;;;;;;;7.77;60.65;97980.65;4364537;80;21218;-88
2021/03/14 15:31:56;;;;;;;6.35;3.12;;;;;;;7.75;60.12;97983.56;4362300;80;21942;-88
2021/03/14 15:37:58;;;;;;;8.38;3.50;;;;;;;7.69;59.84;97984.48;4365708;80;21699;-88
2021/03/14 15:44:00;;;;;;;10.65;3.90;;;;;;;7.63;59.38;97980.56;4380674;80;21357;-89
2021/03/14 15:50:04;;;;;;;8.18;4.00;;;;;;;7.59;59.30;97977.05;4374940;80;21185;-87
2021/03/14 15:56:06;;;;;;;14.90;4.67;;;;;;;7.47;59.04;97977.33;4378633;80;21732;-88
2021/03/14 16:02:08;;;;;;;13.90;5.80;;;;;;;7.33;59.53;97979.19;4376346;80;21319;-88
2021/03/14 16:08:09;;;;;;;15.40;6.30;;;;;;;7.13;59.84;97986.00;4374145;80;21146;-88
2021/03/14 16:14:11;;;;;;;11.38;5.75;;;;;;;6.88;60.12;97996.67;4379175;80;21605;-88
2021/03/14 16:20:13;;;;;;;13.35;5.47;;;;;;;6.68;60.19;98001.32;4374313;79;21614;-89
2021/03/14 16:26:16;;;;;;;13.50;6.08;;;;;;;6.51;60.06;98004.63;4377654;80;21193;-88
2021/03/14 16:32:19;;;;;;;19.35;6.85;;;;;;;6.40;60.10;98020.23;4374796;80;21158;-88
2021/03/14 16:38:21;;;;;;;18.62;8.10;;;;;;;6.34;59.70;98041.34;4378722;80;21197;-89
2021/03/14 16:44:23;;;;;;;22.65;10.25;;;;;;;6.22;60.06;98055.14;4393220;80;21194;-88
2021/03/14 16:50:24;;;;;;;17.02;7.78;;;;;;;6.12;60.21;98069.39;4396298;80;21776;-89
2021/03/14 16:56:26;;;;;;;25.02;9.48;;;;;;;5.95;60.30;98075.36;4397642;80;21261;-88
2021/03/14 17:02:28;;;;;;;17.42;8.85;;;;;;;5.82;60.34;98083.50;4407551;80;21658;-87
2021/03/14 17:08:32;;;;;;;14.58;8.10;;;;;;;5.68;60.60;98087.33;4397751;80;21224;-87
2021/03/14 17:14:34;;;;;;;27.55;11.63;;;;;;;5.55;60.78;98090.02;4403878;80;21180;-87
2021/03/14 17:20:36;;;;;;;20.90;11.97;;;;;;;5.45;61.04;98107.69;4409770;80;21670;-87
2021/03/14 17:26:38;;;;;;;27.77;13.65;;;;;;;5.38;61.34;98109.51;4397610;80;21542;-86
2021/03/14 17:32:40;;;;;;;24.82;12.90;;;;;;;5.29;61.50;98117.11;4404946;80;21190;-87
2021/03/14 17:38:42;;;;;;;22.75;11.03;;;;;;;5.15;62.08;98127.15;4398945;80;21632;-88
2021/03/14 17:44:43;;;;;;;22.05;11.28;;;;;;;5.05;62.02;98137.78;4378307;80;21118;-87
2021/03/14 17:50:45;;;;;;;28.27;14.63;;;;;;;4.95;62.67;98144.56;4388897;80;21843;-87
2021/03/14 17:56:47;;;;;;;27.67;14.18;;;;;;;4.90;62.85;98157.08;4387598;80;21358;-87
2021/03/14 18:02:49;;;;;;;31.20;15.60;;;;;;;4.81;63.48;98155.14;4382233;80;21327;-88
2021/03/14 18:08:50;;;;;;;36.80;16.85;;;;;;;4.73;63.42;98160.98;4378705;80;21788;-89
2021/03/14 18:14:52;;;;;;;28.15;16.32;;;;;;;4.65;63.70;98172.83;4384624;80;21796;-87
2021/03/14 18:20:54;;;;;;;36.93;17.60;;;;;;;4.32;63.38;98180.61;4379260;80;21223;-87
2021/03/14 18:26:56;;;;;;;35.68;15.98;;;;;;;4.21;64.05;98187.72;4384011;80;21208;-88
2021/03/14 18:32:59;;;;;;;36.53;16.12;;;;;;;4.21;64.26;98191.78;4379784;80;21644;-89
2021/03/14 18:39:00;;;;;;;32.90;14.47;;;;;;;4.22;64.34;98196.08;4381453;80;21249;-88
2021/03/14 18:45:06;;;;;;;32.13;13.58;;;;;;;4.22;64.62;98195.28;4378596;80;21176;-89
2021/03/14 18:51:09;;;;;;;26.73;13.08;;;;;;;4.24;64.87;98199.23;4385215;80;21154;-87
2021/03/14 18:57:11;;;;;;;29.15;12.45;;;;;;;4.27;65.29;98199.88;4375876;80;21312;-88
2021/03/14 19:03:13;;;;;;;28.80;12.85;;;;;;;4.31;65.00;98193.95;4377693;80;21877;-88
2021/03/14 19:09:14;;;;;;;32.42;15.30;;;;;;;4.32;65.53;98206.94;4379797;80;21160;-89
2021/03/14 19:15:16;;;;;;;37.98;17.45;;;;;;;4.33;65.58;98213.36;4373099;80;21195;-88
2021/03/14 19:21:18;;;;;;;38.30;16.15;;;;;;;4.24;65.91;98222.81;4377744;80;21177;-88
2021/03/14 19:27:20;;;;;;;41.48;17.25;;;;;;;4.20;66.31;98229.50;4377197;80;21177;-88
2021/03/14 19:33:21;;;;;;;30.82;14.75;;;;;;;4.13;66.56;98221.22;4380106;80;21450;-88
2021/03/14 19:39:24;;;;;;;29.87;13.93;;;;;;;4.00;66.90;98224.35;4379799;80;21202;-88
2021/03/14 19:45:26;;;;;;;29.82;11.57;;;;;;;3.91;67.27;98233.23;4384601;80;21220;-88
2021/03/14 19:51:28;;;;;;;27.15;11.53;;;;;;;3.85;67.48;98240.04;4381271;80;21206;-88
2021/03/14 19:57:29;;;;;;;26.50;11.45;;;;;;;3.82;67.62;98241.50;4381037;80;22106;-89
2021/03/14 20:03:31;;;;;;;22.52;10.28;;;;;;;3.81;67.74;98250.77;4394752;80;21184;-89
2021/03/14 20:09:32;;;;;;;20.35;10.63;;;;;;;3.58;67.44;98259.82;4383544;80;21177;-87
2021/03/14 20:15:34;;;;;;;26.93;13.13;;;;;;;3.29;68.34;98262.31;4388823;80;21205;-87
2021/03/14 20:21:37;;;;;;;30.68;13.78;;;;;;;3.29;68.74;98261.55;4389451;80;21629;-88
2021/03/14 20:27:40;;;;;;;32.78;15.93;;;;;;;3.21;68.94;98261.92;4384938;80;21227;-88
2021/03/14 20:33:42;;;;;;;39.13;15.25;;;;;;;3.17;69.10;98265.08;4386214;80;21184;-89
2021/03/14 20:39:44;;;;;;;32.13;14.05;;;;;;;3.02;69.45;98262.53;4387679;80;21164;-88
2021/03/14 20:45:46;;;;;;;32.55;14.38;;;;;;;2.97;69.54;98266.84;4392452;79;21228;-87
2021/03/14 20:51:48;;;;;;;31.85;14.65;;;;;;;2.83;70.61;98262.38;4389256;79;21711;-87
2021/03/14 20:57:49;;;;;;;43.17;17.37;;;;;;;2.74;70.21;98273.09;4385643;79;21170;-87
2021/03/14 21:03:51;;;;;;;48.15;17.00;;;;;;;2.66;70.63;98271.30;4389602;79;21319;-89
2021/03/14 21:09:53;;;;;;;51.65;22.15;;;;;;;2.63;70.65;98277.39;4393440;80;21184;-87
2021/03/14 21:15:54;;;;;;;53.87;22.70;;;;;;;2.65;70.49;98277.27;4386098;79;21184;-88
2021/03/14 21:21:56;;;;;;;44.27;19.65;;;;;;;2.60;70.61;98288.30;4394699;79;21214;-87
2021/03/14 21:27:58;;;;;;;43.30;18.25;;;;;;;2.53;70.67;98288.09;4394983;79;21630;-87
2021/03/14 21:34:02;;;;;;;44.05;18.57;;;;;;;2.42;70.45;98288.88;4390769;79;21196;-87
2021/03/14 21:40:06;;;;;;;44.27;20.25;;;;;;;2.35;72.75;98279.98;4388900;80;21197;-87
2021/03/14 21:46:10;;;;;;;41.37;17.70;;;;;;;2.19;74.31;98291.81;4361798;80;21598;-87
2021/03/14 21:52:11;;;;;;;42.53;17.45;;;;;;;2.16;72.82;98266.84;4361925;80;21724;-90
2021/03/14 21:58:13;;;;;;;45.67;17.32;;;;;;;2.25;72.69;98281.00;4362214;80;21230;-88
2021/03/14 22:04:14;;;;;;;43.95;17.95;;;;;;;2.47;72.74;98308.37;4357257;80;22263;-87
2021/03/14 22:10:16;;;;;;;47.95;17.55;;;;;;;2.55;72.50;98307.44;4365759;80;21510;-88
2021/03/14 22:16:18;;;;;;;40.95;17.23;;;;;;;2.54;72.22;98311.27;4362384;80;21181;-88
2021/03/14 22:22:20;;;;;;;43.80;17.90;;;;;;;2.50;73.13;98322.55;4364916;80;21724;-87
2021/03/14 22:28:23;;;;;;;49.13;17.27;;;;;;;2.28;72.83;98327.04;4363803;80;21371;-89
2021/03/14 22:34:25;;;;;;;54.23;20.17;;;;;;;2.18;73.43;98324.77;4360295;80;21151;-87
2021/03/14 22:40:33;;;;;;;55.35;22.15;;;;;;;2.13;73.16;98330.96;4354291;80;21391;-87
2021/03/14 22:46:35;;;;;;;42.62;18.98;;;;;;;2.04;73.40;98328.34;4339963;81;21241;-87
2021/03/14 22:52:38;;;;;;;46.05;18.37;;;;;;;2.10;73.44;98327.59;4351249;80;21231;-87
2021/03/14 22:58:40;;;;;;;46.05;19.25;;;;;;;2.17;73.64;98322.41;4351757;81;21726;-86
2021/03/14 23:04:42;;;;;;;41.90;19.50;;;;;;;2.24;73.55;98321.30;4351666;80;21353;-88
2021/03/14 23:10:48;;;;;;;38.38;16.93;;;;;;;2.12;73.31;98320.72;4352267;80;21195;-88
2021/03/14 23:16:49;;;;;;;45.38;20.68;;;;;;;2.18;73.09;98326.67;4353378;80;21224;-87
2021/03/14 23:22:51;;;;;;;61.63;21.62;;;;;;;1.92;73.41;98325.64;4354687;80;21203;-89
2021/03/14 23:29:01;;;;;;;67.53;26.68;;;;;;;1.88;73.68;98315.27;4348098;80;21198;-87
2021/03/14 23:35:05;;;;;;;117.50;37.58;;;;;;;1.87;73.56;98310.20;4348246;80;21168;-88
2021/03/14 23:41:07;;;;;;;99.80;32.23;;;;;;;1.75;73.64;98299.39;4345451;80;21140;-87
2021/03/14 23:47:08;;;;;;;82.57;31.70;;;;;;;1.60;73.74;98290.80;4360986;80;21206;-87
2021/03/14 23:53:10;;;;;;;70.45;29.65;;;;;;;1.52;73.69;98302.47;4362771;80;21224;-88
2021/03/14 23:59:12;;;;;;;76.35;29.07;;;;;;;1.30;73.75;98302.83;4360937;80;21193;-88
